VLG8QU LEBL-LECO
Flight info
| Callsign | VLG8QU |
|---|---|
| Flight time | 1h 24m |
| Altitude | 31000 |
| Route | LOBAR N725 VAKIN/N0441F330 N725 SUSOS/N0377F230 N725 LOMDA |
| Aircraft | A320/M-SDFGHILORVWXY/LB1 |
Departure
| Time | 2026-05-04 13:07 |
|---|---|
| Airport | Josep Tarradellas Barcelona-El Prat Airport (LEBL) |
Arrival
| Time | 2026-05-04 14:31 |
|---|---|
| Airport | A Coruña Airport (LECO) |
| Time | Latitude | Longitude | Altitude | Speed | Heading |
|---|---|---|---|---|---|
| 2026-05-04 12:52 | 41.28995 | 2.07952 | 19 ft | 0 kts | 335° |
| 2026-05-04 13:00 | 41.28982 | 2.07960 | 21 ft | 4 kts | 335° |
| 2026-05-04 13:00 | 41.28957 | 2.07974 | 19 ft | 4 kts | 343° |
| 2026-05-04 13:00 | 41.28932 | 2.07979 | 19 ft | 4 kts | 14° |
| 2026-05-04 13:00 | 41.28914 | 2.07965 | 19 ft | 1 kts | 65° |
| 2026-05-04 13:01 | 41.28913 | 2.07964 | 19 ft | 0 kts | 65° |
| 2026-05-04 13:02 | 41.28916 | 2.07971 | 19 ft | 6 kts | 65° |
| 2026-05-04 13:02 | 41.28947 | 2.08107 | 19 ft | 14 kts | 110° |
| 2026-05-04 13:02 | 41.28908 | 2.08141 | 19 ft | 4 kts | 154° |
| 2026-05-04 13:03 | 41.28845 | 2.08181 | 18 ft | 18 kts | 156° |
| 2026-05-04 13:03 | 41.28728 | 2.08261 | 18 ft | 16 kts | 129° |
| 2026-05-04 13:03 | 41.28742 | 2.08378 | 15 ft | 12 kts | 65° |
| 2026-05-04 13:03 | 41.28794 | 2.08528 | 17 ft | 24 kts | 64° |
| 2026-05-04 13:04 | 41.28868 | 2.08741 | 17 ft | 26 kts | 66° |
| 2026-05-04 13:04 | 41.28944 | 2.08967 | 16 ft | 27 kts | 66° |
| 2026-05-04 13:04 | 41.29024 | 2.09201 | 17 ft | 28 kts | 65° |
| 2026-05-04 13:04 | 41.29107 | 2.09443 | 18 ft | 29 kts | 65° |
| 2026-05-04 13:05 | 41.29193 | 2.09694 | 17 ft | 30 kts | 65° |
| 2026-05-04 13:05 | 41.29276 | 2.09942 | 17 ft | 24 kts | 71° |
| 2026-05-04 13:05 | 41.29246 | 2.10113 | 17 ft | 19 kts | 111° |
| 2026-05-04 13:05 | 41.29248 | 2.10281 | 14 ft | 13 kts | 88° |
| 2026-05-04 13:06 | 41.29222 | 2.10305 | 15 ft | 7 kts | 191° |
| 2026-05-04 13:06 | 41.29151 | 2.10129 | 17 ft | 51 kts | 245° |
| 2026-05-04 13:06 | 41.28910 | 2.09416 | 18 ft | 116 kts | 245° |
| 2026-05-04 13:06 | 41.28502 | 2.08225 | 67 ft | 159 kts | 245° |
| 2026-05-04 13:07 | 41.28067 | 2.06939 | 677 ft | 151 kts | 239° |
| 2026-05-04 13:07 | 41.27275 | 2.06079 | 1143 ft | 154 kts | 194° |
| 2026-05-04 13:07 | 41.26160 | 2.05795 | 1434 ft | 174 kts | 191° |
| 2026-05-04 13:07 | 41.24847 | 2.05463 | 1571 ft | 205 kts | 191° |
| 2026-05-04 13:08 | 41.23410 | 2.05088 | 2095 ft | 218 kts | 192° |
| 2026-05-04 13:08 | 41.21903 | 2.04689 | 2780 ft | 223 kts | 192° |
| 2026-05-04 13:08 | 41.20372 | 2.04278 | 3558 ft | 226 kts | 192° |
| 2026-05-04 13:08 | 41.18901 | 2.03563 | 4301 ft | 228 kts | 213° |
| 2026-05-04 13:09 | 41.17768 | 2.02093 | 5025 ft | 231 kts | 232° |
| 2026-05-04 13:09 | 41.16845 | 2.00310 | 5632 ft | 243 kts | 245° |
| 2026-05-04 13:09 | 41.16566 | 1.98011 | 6032 ft | 264 kts | 277° |
| 2026-05-04 13:09 | 41.17211 | 1.95699 | 6702 ft | 273 kts | 295° |
| 2026-05-04 13:10 | 41.18067 | 1.93421 | 7470 ft | 277 kts | 294° |
| 2026-05-04 13:10 | 41.18908 | 1.91102 | 8226 ft | 281 kts | 293° |
| 2026-05-04 13:10 | 41.19749 | 1.88745 | 8968 ft | 284 kts | 292° |
| 2026-05-04 13:10 | 41.20599 | 1.86352 | 9688 ft | 288 kts | 292° |
| 2026-05-04 13:11 | 41.21464 | 1.83919 | 10272 ft | 299 kts | 292° |
| 2026-05-04 13:11 | 41.22387 | 1.81328 | 10457 ft | 322 kts | 292° |
| 2026-05-04 13:11 | 41.23371 | 1.78563 | 10774 ft | 338 kts | 292° |
| 2026-05-04 13:11 | 41.24392 | 1.75713 | 11388 ft | 344 kts | 292° |
| 2026-05-04 13:12 | 41.25431 | 1.72832 | 12060 ft | 348 kts | 292° |
| 2026-05-04 13:12 | 41.26484 | 1.69915 | 12723 ft | 351 kts | 291° |
| 2026-05-04 13:12 | 41.27545 | 1.66978 | 13406 ft | 354 kts | 291° |
| 2026-05-04 13:12 | 41.28608 | 1.64018 | 14080 ft | 356 kts | 291° |
| 2026-05-04 13:13 | 41.29670 | 1.61051 | 14728 ft | 357 kts | 291° |
| 2026-05-04 13:13 | 41.30743 | 1.58051 | 15371 ft | 359 kts | 291° |
| 2026-05-04 13:13 | 41.31820 | 1.55041 | 15999 ft | 361 kts | 291° |
| 2026-05-04 13:13 | 41.32897 | 1.52017 | 16595 ft | 362 kts | 291° |
| 2026-05-04 13:14 | 41.33989 | 1.48942 | 17189 ft | 364 kts | 291° |
| 2026-05-04 13:14 | 41.35074 | 1.45882 | 17747 ft | 366 kts | 291° |
| 2026-05-04 13:14 | 41.36163 | 1.42809 | 18306 ft | 368 kts | 291° |
| 2026-05-04 13:14 | 41.37259 | 1.39722 | 18863 ft | 370 kts | 291° |
| 2026-05-04 13:15 | 41.38346 | 1.36657 | 19391 ft | 373 kts | 290° |
| 2026-05-04 13:15 | 41.39454 | 1.33525 | 19929 ft | 375 kts | 290° |
| 2026-05-04 13:15 | 41.40582 | 1.30333 | 20452 ft | 377 kts | 290° |
| 2026-05-04 13:15 | 41.41701 | 1.27162 | 20963 ft | 379 kts | 290° |
| 2026-05-04 13:16 | 41.42825 | 1.23972 | 21460 ft | 382 kts | 290° |
| 2026-05-04 13:16 | 41.43959 | 1.20757 | 21937 ft | 384 kts | 289° |
| 2026-05-04 13:16 | 41.45085 | 1.17564 | 22411 ft | 386 kts | 289° |
| 2026-05-04 13:16 | 41.46246 | 1.14269 | 22856 ft | 389 kts | 289° |
| 2026-05-04 13:17 | 41.47397 | 1.10991 | 23292 ft | 391 kts | 289° |
| 2026-05-04 13:17 | 41.48553 | 1.07697 | 23711 ft | 394 kts | 289° |
| 2026-05-04 13:17 | 41.49714 | 1.04388 | 24123 ft | 396 kts | 289° |
| 2026-05-04 13:17 | 41.50884 | 1.01044 | 24529 ft | 398 kts | 289° |
| 2026-05-04 13:18 | 41.52053 | 0.97694 | 24909 ft | 400 kts | 288° |
| 2026-05-04 13:18 | 41.53229 | 0.94326 | 25266 ft | 402 kts | 288° |
| 2026-05-04 13:18 | 41.54412 | 0.90935 | 25616 ft | 404 kts | 288° |
| 2026-05-04 13:18 | 41.55599 | 0.87531 | 25961 ft | 405 kts | 288° |
| 2026-05-04 13:19 | 41.56790 | 0.84114 | 26302 ft | 407 kts | 288° |
| 2026-05-04 13:19 | 41.57986 | 0.80676 | 26634 ft | 409 kts | 288° |
| 2026-05-04 13:19 | 41.59182 | 0.77232 | 26950 ft | 410 kts | 288° |
| 2026-05-04 13:19 | 41.60383 | 0.73764 | 27270 ft | 412 kts | 288° |
| 2026-05-04 13:20 | 41.61588 | 0.70282 | 27582 ft | 414 kts | 288° |
| 2026-05-04 13:20 | 41.62796 | 0.66790 | 27880 ft | 415 kts | 288° |
| 2026-05-04 13:20 | 41.64012 | 0.63276 | 28171 ft | 417 kts | 288° |
| 2026-05-04 13:20 | 41.65229 | 0.59754 | 28460 ft | 418 kts | 288° |
| 2026-05-04 13:21 | 41.66445 | 0.56224 | 28743 ft | 419 kts | 287° |
| 2026-05-04 13:21 | 41.67666 | 0.52671 | 29007 ft | 421 kts | 287° |
| 2026-05-04 13:21 | 41.68887 | 0.49111 | 29267 ft | 421 kts | 287° |
| 2026-05-04 13:21 | 41.70111 | 0.45543 | 29509 ft | 423 kts | 287° |
| 2026-05-04 13:22 | 41.71340 | 0.41964 | 29760 ft | 424 kts | 287° |
| 2026-05-04 13:22 | 41.72572 | 0.38370 | 29989 ft | 425 kts | 287° |
| 2026-05-04 13:22 | 41.73805 | 0.34764 | 30206 ft | 426 kts | 287° |
| 2026-05-04 13:22 | 41.74970 | 0.31120 | 30418 ft | 423 kts | 282° |
| 2026-05-04 13:23 | 41.75865 | 0.27384 | 30611 ft | 422 kts | 280° |
| 2026-05-04 13:23 | 41.76750 | 0.23625 | 30864 ft | 422 kts | 280° |
| 2026-05-04 13:23 | 41.77628 | 0.19892 | 30939 ft | 415 kts | 280° |
| 2026-05-04 13:24 | 41.79341 | 0.12664 | 30952 ft | 403 kts | 280° |
| 2026-05-04 13:24 | 41.81016 | 0.05520 | 30952 ft | 401 kts | 280° |
| 2026-05-04 13:25 | 41.83504 | -0.05193 | 30961 ft | 401 kts | 279° |
| 2026-05-04 13:25 | 41.85160 | -0.12327 | 30961 ft | 401 kts | 279° |
| 2026-05-04 13:26 | 41.86816 | -0.19469 | 30959 ft | 401 kts | 279° |
| 2026-05-04 13:26 | 41.88470 | -0.26606 | 30957 ft | 401 kts | 279° |
| 2026-05-04 13:27 | 41.90113 | -0.33743 | 30957 ft | 401 kts | 279° |
| 2026-05-04 13:27 | 41.91756 | -0.40898 | 30957 ft | 401 kts | 279° |
| 2026-05-04 13:28 | 41.93401 | -0.48059 | 30959 ft | 401 kts | 279° |
| 2026-05-04 13:28 | 41.95042 | -0.55233 | 30961 ft | 401 kts | 279° |
| 2026-05-04 13:29 | 41.96674 | -0.62401 | 30961 ft | 401 kts | 279° |
| 2026-05-04 13:29 | 41.98306 | -0.69564 | 30956 ft | 401 kts | 279° |
| 2026-05-04 13:30 | 41.99931 | -0.76748 | 30952 ft | 402 kts | 278° |
| 2026-05-04 13:30 | 42.01549 | -0.83945 | 30936 ft | 403 kts | 279° |
| 2026-05-04 13:31 | 42.02899 | -0.89946 | 30929 ft | 404 kts | 279° |
| 2026-05-04 13:31 | 42.04521 | -0.97203 | 30928 ft | 405 kts | 279° |
| 2026-05-04 13:32 | 42.06141 | -1.04473 | 30932 ft | 406 kts | 278° |
| 2026-05-04 13:32 | 42.07762 | -1.11761 | 30936 ft | 407 kts | 278° |
| 2026-05-04 13:33 | 42.09376 | -1.19063 | 30947 ft | 407 kts | 278° |
| 2026-05-04 13:33 | 42.10982 | -1.26355 | 30958 ft | 406 kts | 278° |
| 2026-05-04 13:34 | 42.12590 | -1.33655 | 30967 ft | 406 kts | 278° |
| 2026-05-04 13:34 | 42.14194 | -1.40945 | 30970 ft | 405 kts | 278° |
| 2026-05-04 13:35 | 42.16583 | -1.51878 | 30972 ft | 405 kts | 278° |
| 2026-05-04 13:36 | 42.18171 | -1.59169 | 30975 ft | 405 kts | 278° |
| 2026-05-04 13:36 | 42.19753 | -1.66453 | 30975 ft | 405 kts | 278° |
| 2026-05-04 13:37 | 42.21342 | -1.73780 | 30978 ft | 404 kts | 278° |
| 2026-05-04 13:37 | 42.22910 | -1.81053 | 30981 ft | 403 kts | 278° |
| 2026-05-04 13:38 | 42.24468 | -1.88326 | 30984 ft | 403 kts | 278° |
| 2026-05-04 13:38 | 42.26010 | -1.95544 | 30986 ft | 403 kts | 278° |
| 2026-05-04 13:39 | 42.27570 | -2.02856 | 30986 ft | 403 kts | 278° |
| 2026-05-04 13:39 | 42.29104 | -2.10076 | 30986 ft | 402 kts | 278° |
| 2026-05-04 13:40 | 42.30652 | -2.17396 | 30987 ft | 403 kts | 278° |
| 2026-05-04 13:40 | 42.32188 | -2.24679 | 30990 ft | 403 kts | 278° |
| 2026-05-04 13:41 | 42.33725 | -2.31968 | 30988 ft | 404 kts | 278° |
| 2026-05-04 13:41 | 42.35257 | -2.39271 | 30987 ft | 404 kts | 278° |
| 2026-05-04 13:42 | 42.37538 | -2.50248 | 30985 ft | 405 kts | 278° |
| 2026-05-04 13:42 | 42.39063 | -2.57588 | 30988 ft | 406 kts | 278° |
| 2026-05-04 13:43 | 42.40585 | -2.64940 | 30990 ft | 406 kts | 278° |
| 2026-05-04 13:43 | 42.42108 | -2.72304 | 30992 ft | 407 kts | 278° |
| 2026-05-04 13:44 | 42.43620 | -2.79683 | 30993 ft | 407 kts | 278° |
| 2026-05-04 13:44 | 42.45125 | -2.87071 | 30997 ft | 407 kts | 277° |
| 2026-05-04 13:45 | 42.46041 | -2.94553 | 31002 ft | 402 kts | 272° |
| 2026-05-04 13:45 | 42.46862 | -3.02057 | 31005 ft | 403 kts | 272° |
| 2026-05-04 13:46 | 42.47693 | -3.09583 | 31008 ft | 404 kts | 273° |
| 2026-05-04 13:46 | 42.48511 | -3.17115 | 31009 ft | 405 kts | 272° |
| 2026-05-04 13:47 | 42.49318 | -3.24661 | 31010 ft | 405 kts | 273° |
| 2026-05-04 13:47 | 42.50129 | -3.32214 | 31013 ft | 405 kts | 273° |
| 2026-05-04 13:48 | 42.50926 | -3.39779 | 31014 ft | 406 kts | 273° |
| 2026-05-04 13:48 | 42.51725 | -3.47345 | 31016 ft | 406 kts | 273° |
| 2026-05-04 13:49 | 42.52519 | -3.54920 | 31017 ft | 406 kts | 273° |
| 2026-05-04 13:49 | 42.53307 | -3.62495 | 31016 ft | 406 kts | 273° |
| 2026-05-04 13:50 | 42.54093 | -3.70082 | 31018 ft | 406 kts | 273° |
| 2026-05-04 13:50 | 42.54874 | -3.77665 | 31021 ft | 406 kts | 273° |
| 2026-05-04 13:51 | 42.55651 | -3.85256 | 31025 ft | 406 kts | 273° |
| 2026-05-04 13:51 | 42.56418 | -3.92845 | 31026 ft | 406 kts | 273° |
| 2026-05-04 13:52 | 42.57562 | -4.04226 | 31029 ft | 406 kts | 274° |
| 2026-05-04 13:53 | 42.58319 | -4.11827 | 31026 ft | 406 kts | 274° |
| 2026-05-04 13:53 | 42.59068 | -4.19428 | 31023 ft | 406 kts | 274° |
| 2026-05-04 13:54 | 42.60183 | -4.30830 | 31024 ft | 407 kts | 274° |
| 2026-05-04 13:55 | 42.61295 | -4.42244 | 31023 ft | 407 kts | 274° |
| 2026-05-04 13:55 | 42.62394 | -4.53663 | 31022 ft | 407 kts | 274° |
| 2026-05-04 13:56 | 42.63116 | -4.61277 | 31022 ft | 407 kts | 274° |
| 2026-05-04 13:57 | 42.64198 | -4.72708 | 31023 ft | 407 kts | 274° |
| 2026-05-04 13:58 | 42.65614 | -4.87944 | 31014 ft | 406 kts | 274° |
| 2026-05-04 13:58 | 42.66653 | -4.99370 | 31007 ft | 406 kts | 274° |
| 2026-05-04 13:59 | 42.67347 | -5.06983 | 30999 ft | 406 kts | 274° |
| 2026-05-04 14:00 | 42.68377 | -5.18398 | 30997 ft | 406 kts | 274° |
| 2026-05-04 14:00 | 42.69380 | -5.29806 | 30993 ft | 405 kts | 274° |
| 2026-05-04 14:01 | 42.70051 | -5.37405 | 30991 ft | 405 kts | 274° |
| 2026-05-04 14:02 | 42.71037 | -5.48803 | 30991 ft | 404 kts | 274° |
| 2026-05-04 14:02 | 42.71699 | -5.56391 | 30991 ft | 404 kts | 274° |
| 2026-05-04 14:03 | 42.72359 | -5.63977 | 30988 ft | 404 kts | 274° |
| 2026-05-04 14:03 | 42.73002 | -5.71564 | 30986 ft | 404 kts | 274° |
| 2026-05-04 14:04 | 42.73957 | -5.82930 | 30985 ft | 403 kts | 274° |
| 2026-05-04 14:04 | 42.74593 | -5.90487 | 30981 ft | 403 kts | 274° |
| 2026-05-04 14:05 | 42.75535 | -6.01850 | 30979 ft | 402 kts | 274° |
| 2026-05-04 14:06 | 42.76154 | -6.09416 | 30986 ft | 402 kts | 274° |
| 2026-05-04 14:06 | 42.76760 | -6.16970 | 30990 ft | 402 kts | 274° |
| 2026-05-04 14:07 | 42.77370 | -6.24530 | 30994 ft | 401 kts | 274° |
| 2026-05-04 14:07 | 42.77974 | -6.32074 | 30994 ft | 401 kts | 274° |
| 2026-05-04 14:08 | 42.78563 | -6.39622 | 31006 ft | 401 kts | 274° |
| 2026-05-04 14:08 | 42.79149 | -6.47172 | 30998 ft | 401 kts | 274° |
| 2026-05-04 14:09 | 42.80028 | -6.58501 | 30998 ft | 401 kts | 274° |
| 2026-05-04 14:10 | 42.80798 | -6.68566 | 30955 ft | 394 kts | 274° |
| 2026-05-04 14:10 | 42.81167 | -6.73428 | 30498 ft | 385 kts | 274° |
| 2026-05-04 14:10 | 42.81353 | -6.75861 | 30209 ft | 382 kts | 274° |
| 2026-05-04 14:10 | 42.81625 | -6.79438 | 29764 ft | 378 kts | 274° |
| 2026-05-04 14:11 | 42.81893 | -6.82981 | 29312 ft | 374 kts | 274° |
| 2026-05-04 14:11 | 42.82416 | -6.89979 | 28368 ft | 369 kts | 274° |
| 2026-05-04 14:11 | 42.82674 | -6.93443 | 27884 ft | 367 kts | 274° |
| 2026-05-04 14:12 | 42.82928 | -6.96884 | 27437 ft | 364 kts | 274° |
| 2026-05-04 14:12 | 42.83180 | -7.00303 | 26998 ft | 361 kts | 274° |
| 2026-05-04 14:12 | 42.83673 | -7.07056 | 26141 ft | 356 kts | 274° |
| 2026-05-04 14:13 | 42.83914 | -7.10399 | 25693 ft | 354 kts | 274° |
| 2026-05-04 14:13 | 42.84153 | -7.13724 | 25252 ft | 351 kts | 274° |
| 2026-05-04 14:13 | 42.84390 | -7.17019 | 24790 ft | 349 kts | 274° |
| 2026-05-04 14:13 | 42.84624 | -7.20291 | 24312 ft | 346 kts | 274° |
| 2026-05-04 14:14 | 42.84854 | -7.23546 | 23878 ft | 343 kts | 274° |
| 2026-05-04 14:14 | 42.85832 | -7.29851 | 22989 ft | 342 kts | 291° |
| 2026-05-04 14:14 | 42.86974 | -7.32696 | 22535 ft | 343 kts | 302° |
| 2026-05-04 14:15 | 42.89818 | -7.37913 | 21663 ft | 341 kts | 303° |
| 2026-05-04 14:15 | 42.92642 | -7.43079 | 20799 ft | 338 kts | 303° |
| 2026-05-04 14:16 | 42.95437 | -7.48204 | 19967 ft | 335 kts | 303° |
| 2026-05-04 14:16 | 42.96822 | -7.50754 | 19551 ft | 333 kts | 303° |
| 2026-05-04 14:17 | 42.99563 | -7.55817 | 18729 ft | 330 kts | 303° |
| 2026-05-04 14:17 | 43.00922 | -7.58337 | 18332 ft | 329 kts | 303° |
| 2026-05-04 14:17 | 43.03627 | -7.63339 | 17532 ft | 326 kts | 303° |
| 2026-05-04 14:18 | 43.04970 | -7.65824 | 17137 ft | 324 kts | 303° |
| 2026-05-04 14:18 | 43.07635 | -7.70758 | 16388 ft | 320 kts | 304° |
| 2026-05-04 14:19 | 43.10265 | -7.75641 | 15646 ft | 317 kts | 304° |
| 2026-05-04 14:19 | 43.11572 | -7.78067 | 15279 ft | 316 kts | 304° |
| 2026-05-04 14:19 | 43.12871 | -7.80480 | 14908 ft | 314 kts | 304° |
| 2026-05-04 14:19 | 43.14162 | -7.82883 | 14544 ft | 313 kts | 304° |
| 2026-05-04 14:20 | 43.15446 | -7.85277 | 14184 ft | 311 kts | 304° |
| 2026-05-04 14:20 | 43.16722 | -7.87660 | 13822 ft | 310 kts | 304° |
| 2026-05-04 14:20 | 43.17993 | -7.90034 | 13457 ft | 308 kts | 304° |
| 2026-05-04 14:21 | 43.20511 | -7.94744 | 12736 ft | 305 kts | 304° |
| 2026-05-04 14:21 | 43.21759 | -7.97082 | 12376 ft | 303 kts | 304° |
| 2026-05-04 14:21 | 43.22997 | -7.99406 | 11998 ft | 300 kts | 304° |
| 2026-05-04 14:21 | 43.24222 | -8.01702 | 11343 ft | 297 kts | 304° |
| 2026-05-04 14:22 | 43.25439 | -8.03979 | 10701 ft | 295 kts | 304° |
| 2026-05-04 14:22 | 43.26645 | -8.06237 | 10053 ft | 292 kts | 304° |
| 2026-05-04 14:22 | 43.27820 | -8.08435 | 9609 ft | 281 kts | 304° |
| 2026-05-04 14:22 | 43.28965 | -8.10584 | 9039 ft | 277 kts | 304° |
| 2026-05-04 14:23 | 43.31523 | -8.14396 | 7780 ft | 273 kts | 336° |
| 2026-05-04 14:23 | 43.33383 | -8.14704 | 7230 ft | 273 kts | 12° |
| 2026-05-04 14:23 | 43.35194 | -8.13823 | 7078 ft | 280 kts | 20° |
| 2026-05-04 14:24 | 43.37037 | -8.12932 | 7076 ft | 282 kts | 13° |
| 2026-05-04 14:24 | 43.38950 | -8.12429 | 7080 ft | 280 kts | 2° |
| 2026-05-04 14:24 | 43.40881 | -8.12409 | 6686 ft | 273 kts | 352° |
| 2026-05-04 14:24 | 43.42741 | -8.12848 | 6025 ft | 270 kts | 342° |
| 2026-05-04 14:25 | 43.44508 | -8.13650 | 5377 ft | 266 kts | 335° |
| 2026-05-04 14:25 | 43.47623 | -8.16053 | 4555 ft | 240 kts | 320° |
| 2026-05-04 14:25 | 43.48859 | -8.17485 | 4271 ft | 226 kts | 313° |
| 2026-05-04 14:26 | 43.49718 | -8.19205 | 3803 ft | 215 kts | 281° |
| 2026-05-04 14:26 | 43.49593 | -8.21192 | 3309 ft | 212 kts | 243° |
| 2026-05-04 14:26 | 43.48566 | -8.22591 | 3147 ft | 208 kts | 212° |
| 2026-05-04 14:26 | 43.47338 | -8.23562 | 3050 ft | 200 kts | 214° |
| 2026-05-04 14:27 | 43.46168 | -8.24559 | 3004 ft | 196 kts | 214° |
| 2026-05-04 14:27 | 43.45004 | -8.25533 | 3008 ft | 196 kts | 214° |
| 2026-05-04 14:27 | 43.43838 | -8.26498 | 3005 ft | 196 kts | 214° |
| 2026-05-04 14:27 | 43.42688 | -8.27447 | 2949 ft | 187 kts | 214° |
| 2026-05-04 14:28 | 43.41586 | -8.28357 | 2709 ft | 182 kts | 213° |
| 2026-05-04 14:28 | 43.40518 | -8.29238 | 2473 ft | 177 kts | 211° |
| 2026-05-04 14:28 | 43.39476 | -8.30097 | 2247 ft | 172 kts | 210° |
| 2026-05-04 14:28 | 43.38460 | -8.30934 | 2028 ft | 169 kts | 209° |
| 2026-05-04 14:29 | 43.36538 | -8.32518 | 1588 ft | 152 kts | 208° |
| 2026-05-04 14:29 | 43.34740 | -8.33998 | 1207 ft | 148 kts | 212° |
| 2026-05-04 14:30 | 43.33853 | -8.34727 | 1007 ft | 149 kts | 210° |
| 2026-05-04 14:30 | 43.32979 | -8.35445 | 810 ft | 148 kts | 211° |
| 2026-05-04 14:30 | 43.31207 | -8.36901 | 405 ft | 148 kts | 211° |
| 2026-05-04 14:31 | 43.30344 | -8.37613 | 273 ft | 134 kts | 211° |
| 2026-05-04 14:31 | 43.29471 | -8.38330 | 270 ft | 44 kts | 211° |
| 2026-05-04 14:32 | 43.29204 | -8.38558 | 270 ft | 10 kts | 77° |
| 2026-05-04 14:32 | 43.29265 | -8.38500 | 271 ft | 16 kts | 31° |
| 2026-05-04 14:32 | 43.29406 | -8.38384 | 269 ft | 29 kts | 31° |
| 2026-05-04 14:32 | 43.29574 | -8.38245 | 270 ft | 27 kts | 31° |
| 2026-05-04 14:33 | 43.29740 | -8.38111 | 275 ft | 29 kts | 31° |
| 2026-05-04 14:33 | 43.29901 | -8.37984 | 274 ft | 23 kts | 22° |
| 2026-05-04 14:33 | 43.29968 | -8.38038 | 273 ft | 12 kts | 307° |
| 2026-05-04 14:33 | 43.30024 | -8.38076 | 274 ft | 7 kts | 354° |
| 2026-05-04 14:34 | 43.30067 | -8.38072 | 274 ft | 8 kts | 11° |
| 2026-05-04 14:34 | 43.30115 | -8.38043 | 274 ft | 5 kts | 13° |
| 2026-05-04 14:34 | 43.30139 | -8.38057 | 274 ft | 2 kts | 324° |
| 2026-05-04 14:34 | 43.30158 | -8.38075 | 274 ft | 3 kts | 324° |
| 2026-05-04 14:35 | 43.30165 | -8.38082 | 274 ft | 2 kts | 325° |
| 2026-05-04 14:35 | 43.30166 | -8.38082 | 274 ft | 0 kts | 325° |